Time;durP1;ratioP1;P1;durP2;ratioP2;P2;SDS_P1;SDS_P2;PMS_P1;PMS_P2;Temp;Humidity;BMP_temperature;BMP_pressure;BME280_temperature;BME280_humidity;BME280_pressure;Samples;Min_cycle;Max_cycle;Signal;HPM_P1;HPM_P2
2023/04/20 00:02:01;;;;;;;8.73;5.37;;;5.40;99.90;;;;;;4977684;28;20190;-66
2023/04/20 00:04:28;;;;;;;6.07;5.10;;;5.40;99.90;;;;;;4976548;28;20843;-66
2023/04/20 00:06:55;;;;;;;5.50;4.80;;;5.40;99.90;;;;;;4979189;28;20463;-66
2023/04/20 00:09:21;;;;;;;5.10;4.60;;;5.40;99.90;;;;;;4980293;28;20447;-68
2023/04/20 00:11:47;;;;;;;7.13;4.90;;;5.40;99.90;;;;;;4977887;28;20928;-66
2023/04/20 00:14:13;;;;;;;4.33;4.03;;;5.40;99.90;;;;;;4983110;28;20545;-67
2023/04/20 00:16:39;;;;;;;5.93;4.60;;;5.40;99.90;;;;;;4977725;28;20273;-67
2023/04/20 00:19:06;;;;;;;5.40;4.40;;;5.30;99.90;;;;;;4975442;28;20435;-67
2023/04/20 00:21:31;;;;;;;5.97;5.10;;;5.20;99.90;;;;;;4985482;28;20176;-67
2023/04/20 00:23:57;;;;;;;6.23;5.10;;;5.20;99.90;;;;;;4974894;28;20436;-67
2023/04/20 00:26:22;;;;;;;6.00;5.40;;;5.20;99.90;;;;;;4958839;28;20311;-67
2023/04/20 00:28:49;;;;;;;6.50;4.70;;;5.10;99.90;;;;;;4979318;28;20188;-67
2023/04/20 00:31:15;;;;;;;8.80;5.40;;;5.00;99.90;;;;;;4983712;28;20188;-66
2023/04/20 00:33:40;;;;;;;5.90;5.30;;;4.90;99.90;;;;;;4984997;28;20782;-67
2023/04/20 00:36:06;;;;;;;5.03;4.63;;;4.90;99.90;;;;;;4974894;28;20540;-67
2023/04/20 00:38:32;;;;;;;8.20;4.70;;;4.80;99.90;;;;;;4982841;28;20208;-67
2023/04/20 00:40:57;;;;;;;5.90;5.33;;;4.80;99.90;;;;;;4982794;28;20449;-67
2023/04/20 00:43:23;;;;;;;6.17;5.10;;;4.80;99.90;;;;;;4983947;28;20178;-67
2023/04/20 00:45:50;;;;;;;5.57;5.07;;;4.80;99.90;;;;;;4977069;28;20207;-66
2023/04/20 00:48:17;;;;;;;6.33;5.73;;;4.80;99.90;;;;;;4973339;28;20195;-66
2023/04/20 00:50:43;;;;;;;5.60;5.10;;;4.80;99.90;;;;;;4985243;28;20443;-67
2023/04/20 00:53:09;;;;;;;6.70;5.73;;;4.80;99.90;;;;;;4979580;28;20886;-66
2023/04/20 00:55:36;;;;;;;7.20;5.60;;;4.80;99.90;;;;;;4977592;28;20440;-66
2023/04/20 00:58:02;;;;;;;8.53;5.07;;;4.80;99.90;;;;;;4974067;28;20475;-67
2023/04/20 01:00:27;;;;;;;6.10;5.37;;;4.80;99.90;;;;;;4972503;28;20435;-67
2023/04/20 01:02:53;;;;;;;5.77;5.27;;;4.70;99.90;;;;;;4974912;28;20258;-67
2023/04/20 01:05:20;;;;;;;6.33;5.43;;;4.60;99.90;;;;;;4973994;28;20179;-67
2023/04/20 01:07:45;;;;;;;7.27;5.30;;;4.50;99.90;;;;;;4974945;28;20208;-67
2023/04/20 01:10:11;;;;;;;7.00;5.77;;;4.50;99.90;;;;;;4972576;28;20443;-67
2023/04/20 01:12:36;;;;;;;5.67;5.00;;;4.40;99.90;;;;;;4974358;28;20566;-67
2023/04/20 01:15:04;;;;;;;13.53;5.87;;;4.40;99.90;;;;;;4982815;28;20191;-67
2023/04/20 01:17:30;;;;;;;7.50;5.03;;;4.40;99.90;;;;;;4966762;28;20207;-67
2023/04/20 01:19:58;;;;;;;6.67;6.03;;;4.30;99.90;;;;;;4980871;28;20439;-67
2023/04/20 01:22:24;;;;;;;6.90;5.70;;;4.30;99.90;;;;;;4981654;28;20506;-67
2023/04/20 01:24:50;;;;;;;7.13;5.50;;;4.30;99.90;;;;;;4973353;28;20599;-67
2023/04/20 01:27:16;;;;;;;7.43;6.10;;;4.20;99.90;;;;;;4970350;28;20622;-67
2023/04/20 01:29:42;;;;;;;8.40;5.70;;;4.20;99.90;;;;;;4981950;28;20267;-67
2023/04/20 01:32:08;;;;;;;15.20;11.10;;;4.20;99.90;;;;;;4985150;28;20508;-67
2023/04/20 01:34:33;;;;;;;8.13;7.00;;;4.10;99.90;;;;;;4975112;28;20519;-67
2023/04/20 01:36:59;;;;;;;6.10;5.50;;;4.10;99.90;;;;;;4974134;28;20219;-67
2023/04/20 01:39:25;;;;;;;6.73;6.13;;;4.10;99.90;;;;;;4974565;28;20211;-67
2023/04/20 01:41:50;;;;;;;8.00;6.40;;;4.10;99.90;;;;;;4985734;28;20520;-67
2023/04/20 01:44:16;;;;;;;6.33;5.73;;;4.10;99.90;;;;;;4980712;28;20172;-67
2023/04/20 01:46:41;;;;;;;7.03;6.33;;;4.10;99.90;;;;;;4971446;28;20208;-67
2023/04/20 01:49:07;;;;;;;8.30;5.47;;;4.10;99.90;;;;;;4971654;28;20259;-67
2023/04/20 01:51:34;;;;;;;7.13;5.67;;;4.10;99.90;;;;;;4975888;28;20255;-67
2023/04/20 01:54:00;;;;;;;9.70;5.40;;;4.10;99.90;;;;;;4983622;28;20274;-67
2023/04/20 01:56:26;;;;;;;5.80;5.20;;;4.00;99.90;;;;;;4974396;28;20965;-67
2023/04/20 01:58:51;;;;;;;7.47;6.53;;;4.00;99.90;;;;;;4979727;28;20503;-67
2023/04/20 02:01:17;;;;;;;8.63;6.40;;;4.00;99.90;;;;;;4976749;28;20653;-67
2023/04/20 02:03:42;;;;;;;10.23;5.80;;;4.00;99.90;;;;;;4979796;28;20226;-68
2023/04/20 02:06:08;;;;;;;10.77;5.83;;;4.00;99.90;;;;;;4972086;28;20274;-66
2023/04/20 02:08:34;;;;;;;5.90;5.33;;;3.90;99.90;;;;;;4969548;28;20180;-66
2023/04/20 02:10:59;;;;;;;6.07;5.30;;;3.90;99.90;;;;;;4981661;28;20211;-66
2023/04/20 02:13:25;;;;;;;9.30;6.23;;;3.90;99.90;;;;;;4982427;28;20646;-66
2023/04/20 02:15:50;;;;;;;6.93;6.20;;;3.80;99.90;;;;;;4984903;28;20195;-66
2023/04/20 02:18:16;;;;;;;6.40;5.77;;;3.80;99.90;;;;;;4979810;28;20269;-66
2023/04/20 02:20:43;;;;;;;6.03;5.43;;;3.70;99.90;;;;;;4971584;28;20264;-66
2023/04/20 02:23:09;;;;;;;7.70;5.63;;;3.80;99.90;;;;;;4973485;28;20172;-66
2023/04/20 02:25:34;;;;;;;5.60;5.10;;;3.70;99.90;;;;;;4983562;28;20921;-66
2023/04/20 02:28:00;;;;;;;6.80;6.07;;;3.60;99.90;;;;;;4983730;28;20564;-67
2023/04/20 02:30:26;;;;;;;6.83;6.17;;;3.50;99.90;;;;;;4977999;28;20184;-66
2023/04/20 02:32:51;;;;;;;9.03;6.27;;;3.50;99.90;;;;;;4973169;28;20183;-66
2023/04/20 02:35:17;;;;;;;7.97;5.70;;;3.50;99.90;;;;;;4980446;28;20192;-66
2023/04/20 02:37:43;;;;;;;7.10;6.07;;;3.40;99.90;;;;;;4984300;28;20211;-66
2023/04/20 02:40:09;;;;;;;6.37;5.77;;;3.40;99.90;;;;;;4983851;28;20183;-66
2023/04/20 02:42:34;;;;;;;7.90;5.60;;;3.40;99.90;;;;;;4978480;28;20596;-66
2023/04/20 02:45:00;;;;;;;9.80;7.13;;;3.40;99.90;;;;;;4973001;28;20263;-66
2023/04/20 02:47:26;;;;;;;7.23;5.60;;;3.40;99.90;;;;;;4976073;28;20219;-66
2023/04/20 02:49:51;;;;;;;6.60;5.90;;;3.40;99.90;;;;;;4970474;28;20571;-66
2023/04/20 02:52:17;;;;;;;7.80;7.00;;;3.40;99.90;;;;;;4972809;28;20701;-66
2023/04/20 02:54:42;;;;;;;6.90;6.20;;;3.40;99.90;;;;;;4984774;28;20184;-67
2023/04/20 02:57:10;;;;;;;7.43;6.53;;;3.40;99.90;;;;;;4972599;28;20212;-66
2023/04/20 02:59:36;;;;;;;8.33;7.03;;;3.30;99.90;;;;;;4981614;28;20242;-66
2023/04/20 03:02:01;;;;;;;7.80;6.23;;;3.30;99.90;;;;;;4983246;28;20933;-66
2023/04/20 03:04:27;;;;;;;6.03;5.30;;;3.20;99.90;;;;;;4964448;28;20172;-66
2023/04/20 03:06:52;;;;;;;6.50;5.83;;;3.20;99.90;;;;;;4978322;28;20214;-67
2023/04/20 03:09:18;;;;;;;7.10;6.50;;;3.10;99.90;;;;;;4969499;28;20243;-66
2023/04/20 03:11:44;;;;;;;7.30;6.60;;;3.10;99.90;;;;;;4971666;28;20188;-67
2023/04/20 03:14:10;;;;;;;7.37;6.67;;;3.10;99.90;;;;;;4980934;28;20720;-67
2023/04/20 03:16:36;;;;;;;7.67;6.87;;;3.00;99.90;;;;;;4982963;28;20550;-67
2023/04/20 03:19:02;;;;;;;8.03;6.40;;;3.00;99.90;;;;;;4977387;28;20566;-67
2023/04/20 03:21:27;;;;;;;7.43;6.00;;;2.80;99.90;;;;;;4973016;28;20189;-67
2023/04/20 03:23:53;;;;;;;8.00;7.23;;;2.80;99.90;;;;;;4980821;28;20609;-67
2023/04/20 03:26:19;;;;;;;7.77;6.60;;;2.80;99.90;;;;;;4964246;28;20200;-67
2023/04/20 03:28:44;;;;;;;8.77;6.70;;;2.80;99.90;;;;;;4961993;28;20183;-67
2023/04/20 03:31:10;;;;;;;7.77;7.03;;;2.80;99.90;;;;;;4971406;28;20498;-67
2023/04/20 03:33:36;;;;;;;7.07;6.40;;;2.80;99.90;;;;;;4972430;28;20669;-67
2023/04/20 03:36:03;;;;;;;9.47;7.53;;;2.70;99.90;;;;;;4970802;28;20290;-67
2023/04/20 03:38:29;;;;;;;11.30;6.73;;;2.80;99.90;;;;;;4974806;28;20299;-67
2023/04/20 03:40:55;;;;;;;8.97;6.57;;;2.80;99.90;;;;;;4982656;28;20439;-66
2023/04/20 03:43:20;;;;;;;8.70;7.80;;;2.90;99.90;;;;;;4968644;28;20455;-66
2023/04/20 03:45:46;;;;;;;7.50;6.60;;;2.80;99.90;;;;;;4971969;28;20536;-66
2023/04/20 03:48:11;;;;;;;7.60;6.80;;;2.80;99.90;;;;;;5017070;23;20234;-72
2023/04/20 03:50:37;;;;;;;7.00;6.17;;;2.80;99.90;;;;;;5010793;28;20191;-69
2023/04/20 03:53:02;;;;;;;7.50;6.90;;;2.80;99.90;;;;;;5018375;28;20666;-70
2023/04/20 03:55:28;;;;;;;12.23;7.23;;;2.80;99.90;;;;;;5013951;28;20187;-70
2023/04/20 03:57:53;;;;;;;10.13;8.80;;;2.80;99.90;;;;;;4999543;28;20211;-70
2023/04/20 04:00:19;;;;;;;7.83;7.03;;;2.70;99.90;;;;;;5010092;28;20179;-70
2023/04/20 04:02:45;;;;;;;9.73;7.30;;;2.70;99.90;;;;;;5002978;28;20215;-70
2023/04/20 04:05:10;;;;;;;7.57;6.00;;;2.70;99.90;;;;;;5003482;28;20245;-71
2023/04/20 04:07:36;;;;;;;8.70;7.13;;;2.70;99.90;;;;;;5002053;28;20203;-70
2023/04/20 04:10:03;;;;;;;9.03;8.23;;;2.70;99.90;;;;;;4993445;28;20195;-70
2023/04/20 04:12:29;;;;;;;10.60;8.17;;;2.70;99.90;;;;;;5003142;28;20663;-71
2023/04/20 04:14:54;;;;;;;7.50;6.70;;;2.70;99.90;;;;;;5006270;28;20434;-70
2023/04/20 04:17:20;;;;;;;8.37;6.77;;;2.70;99.90;;;;;;4995118;28;20319;-70
2023/04/20 04:19:45;;;;;;;15.03;7.40;;;2.60;99.90;;;;;;5002088;28;20176;-70
2023/04/20 04:22:11;;;;;;;12.20;7.23;;;2.60;99.90;;;;;;5003271;28;20250;-70
2023/04/20 04:24:37;;;;;;;8.57;7.30;;;2.50;99.90;;;;;;5005666;28;20180;-70
2023/04/20 04:27:04;;;;;;;7.70;7.00;;;2.50;99.90;;;;;;4999032;28;20214;-70
2023/04/20 04:29:34;;;;;;;7.40;6.60;;;2.40;99.90;;;;;;4990340;28;20819;-70
2023/04/20 04:32:01;;;;;;;9.07;8.03;;;2.30;99.90;;;;;;4991254;28;20446;-70
2023/04/20 04:34:28;;;;;;;12.73;8.10;;;2.30;99.90;;;;;;4982979;28;20441;-70
2023/04/20 04:36:54;;;;;;;9.40;8.00;;;2.30;99.90;;;;;;4987439;28;20463;-70
2023/04/20 04:39:19;;;;;;;9.17;8.27;;;2.30;99.90;;;;;;4994587;28;20438;-71
2023/04/20 04:41:46;;;;;;;9.17;8.17;;;2.30;99.90;;;;;;4994819;28;20187;-70
2023/04/20 04:44:11;;;;;;;10.77;8.90;;;2.30;99.90;;;;;;5002786;28;20687;-70
2023/04/20 04:46:37;;;;;;;8.17;7.33;;;2.40;99.90;;;;;;5002432;28;20568;-70
2023/04/20 04:49:03;;;;;;;7.23;6.53;;;2.40;99.90;;;;;;5000383;28;20547;-71
2023/04/20 04:51:28;;;;;;;9.03;8.10;;;2.60;99.90;;;;;;4992532;28;20187;-69
2023/04/20 04:53:54;;;;;;;10.00;7.57;;;2.70;99.90;;;;;;5000106;28;20447;-70
2023/04/20 04:56:22;;;;;;;15.00;8.10;;;2.80;99.90;;;;;;5001277;28;20172;-70
2023/04/20 04:58:47;;;;;;;10.43;8.20;;;3.00;99.90;;;;;;5004241;28;20207;-70
2023/04/20 05:01:13;;;;;;;9.40;7.33;;;3.10;99.90;;;;;;4996776;28;20447;-70
2023/04/20 05:03:38;;;;;;;9.33;8.43;;;3.30;99.90;;;;;;4993412;28;20191;-70
2023/04/20 05:06:04;;;;;;;8.90;8.00;;;3.40;99.90;;;;;;4994706;28;20182;-71
2023/04/20 05:08:30;;;;;;;12.70;8.37;;;3.50;99.90;;;;;;5003670;28;20191;-71
2023/04/20 05:10:56;;;;;;;15.63;10.70;;;3.50;99.90;;;;;;5000991;28;20454;-70
2023/04/20 05:13:21;;;;;;;12.00;10.90;;;3.50;99.90;;;;;;4992856;28;20215;-70
2023/04/20 05:15:47;;;;;;;11.97;10.77;;;3.60;99.90;;;;;;5001286;28;20688;-71
2023/04/20 05:18:12;;;;;;;9.77;8.53;;;3.80;99.90;;;;;;5001786;28;20208;-71
2023/04/20 05:20:38;;;;;;;9.80;8.53;;;3.80;99.90;;;;;;4998269;28;20180;-70
2023/04/20 05:23:04;;;;;;;10.07;9.10;;;3.80;99.90;;;;;;4997385;28;20218;-70
2023/04/20 05:25:31;;;;;;;15.63;9.23;;;3.70;99.90;;;;;;4988680;28;20176;-71
2023/04/20 05:27:57;;;;;;;16.50;10.80;;;3.80;99.90;;;;;;4992167;28;20242;-70
2023/04/20 05:30:22;;;;;;;11.37;9.67;;;4.00;99.90;;;;;;4992399;28;20467;-70
2023/04/20 05:32:49;;;;;;;11.47;9.90;;;4.20;99.90;;;;;;4992545;28;20195;-71
2023/04/20 05:35:14;;;;;;;12.47;10.20;;;4.40;99.90;;;;;;4988198;28;20195;-71
2023/04/20 05:37:40;;;;;;;12.03;10.83;;;4.60;99.90;;;;;;4992918;28;20462;-70
2023/04/20 05:40:06;;;;;;;10.70;9.17;;;4.80;99.90;;;;;;4993684;28;20180;-69
2023/04/20 05:42:32;;;;;;;10.00;9.10;;;4.90;99.90;;;;;;5000911;28;20187;-70
2023/04/20 05:44:57;;;;;;;11.00;9.90;;;5.10;99.90;;;;;;4996442;28;20509;-71
2023/04/20 05:47:23;;;;;;;11.60;10.40;;;5.30;99.90;;;;;;4992926;28;20582;-69
2023/04/20 05:49:48;;;;;;;9.83;8.83;;;5.50;99.90;;;;;;4997842;28;20190;-69
2023/04/20 05:52:14;;;;;;;11.70;10.10;;;5.60;99.90;;;;;;4976075;28;20183;-71
2023/04/20 05:54:39;;;;;;;11.13;8.60;;;5.80;99.90;;;;;;4995510;28;20490;-70
2023/04/20 05:57:05;;;;;;;10.20;9.30;;;6.00;99.90;;;;;;4974638;28;20249;-70
2023/04/20 05:59:31;;;;;;;10.50;9.50;;;6.10;99.90;;;;;;4996613;28;20179;-70
2023/04/20 06:01:56;;;;;;;10.43;8.70;;;6.10;99.90;;;;;;5004437;28;20186;-70
2023/04/20 06:04:22;;;;;;;9.00;8.10;;;6.30;99.90;;;;;;5004883;28;20441;-69
2023/04/20 06:06:47;;;;;;;10.70;9.67;;;6.30;99.90;;;;;;4999990;28;20199;-70
2023/04/20 06:09:13;;;;;;;13.23;9.53;;;6.40;99.90;;;;;;4991421;28;20181;-69
2023/04/20 06:11:39;;;;;;;9.90;8.43;;;6.50;99.90;;;;;;4996969;28;20195;-70
2023/04/20 06:14:04;;;;;;;8.97;8.17;;;6.60;99.90;;;;;;4995163;28;20180;-70
2023/04/20 06:16:30;;;;;;;9.00;8.13;;;6.80;99.90;;;;;;4989921;28;20210;-69
2023/04/20 06:18:56;;;;;;;8.27;7.40;;;7.00;99.90;;;;;;4991050;28;20217;-69
2023/04/20 06:21:23;;;;;;;9.83;9.00;;;7.20;99.90;;;;;;4992258;28;20175;-69
2023/04/20 06:23:49;;;;;;;9.97;8.67;;;7.30;99.90;;;;;;4995130;28;20701;-70
2023/04/20 06:26:14;;;;;;;9.27;8.20;;;7.50;99.90;;;;;;4991088;28;20466;-69
2023/04/20 06:28:40;;;;;;;9.67;8.67;;;7.70;99.90;;;;;;4992460;28;20554;-70
2023/04/20 06:31:06;;;;;;;8.80;7.90;;;7.70;99.90;;;;;;4993671;28;20184;-70
2023/04/20 06:33:31;;;;;;;10.00;8.30;;;7.90;99.90;;;;;;4992008;28;20244;-71
2023/04/20 06:35:57;;;;;;;10.73;9.73;;;8.10;99.90;;;;;;4996477;28;20211;-69
2023/04/20 06:38:24;;;;;;;11.30;7.57;;;8.20;99.90;;;;;;5007787;28;20232;-70
2023/04/20 06:40:49;;;;;;;10.50;9.50;;;8.50;99.90;;;;;;5000703;28;20210;-70
2023/04/20 06:43:15;;;;;;;11.27;9.73;;;8.60;99.90;;;;;;4993190;28;20443;-70
2023/04/20 06:45:40;;;;;;;11.80;7.87;;;8.50;99.90;;;;;;4991709;28;20194;-70
2023/04/20 06:48:06;;;;;;;11.30;8.23;;;8.30;99.90;;;;;;5000450;28;20215;-70
2023/04/20 06:50:32;;;;;;;9.97;8.97;;;8.30;99.90;;;;;;5001759;28;20552;-70
2023/04/20 06:52:57;;;;;;;12.40;9.90;;;8.40;99.90;;;;;;4994702;28;20259;-70
2023/04/20 06:55:23;;;;;;;8.77;7.50;;;8.70;99.90;;;;;;4990347;28;20176;-70
2023/04/20 06:57:48;;;;;;;10.23;9.23;;;9.20;99.90;;;;;;4989123;28;20194;-71
2023/04/20 07:00:14;;;;;;;10.27;8.37;;;9.50;99.90;;;;;;4989520;28;20183;-70
2023/04/20 07:02:48;;;;;;;10.70;8.77;;;9.70;99.90;;;;;;4992650;28;20258;-70
2023/04/20 07:05:15;;;;;;;14.37;9.10;;;9.50;99.90;;;;;;4990565;28;20437;-70
2023/04/20 07:07:41;;;;;;;10.03;8.10;;;9.50;99.90;;;;;;4992589;28;20453;-70
2023/04/20 07:10:08;;;;;;;11.40;9.10;;;9.70;99.90;;;;;;4991787;28;20464;-70
2023/04/20 07:12:35;;;;;;;12.17;8.63;;;9.80;99.90;;;;;;4993666;28;20261;-70
2023/04/20 07:15:02;;;;;;;8.90;8.00;;;9.90;99.90;;;;;;4996942;28;20431;-70
2023/04/20 07:17:28;;;;;;;10.17;9.17;;;9.90;99.90;;;;;;4986555;28;20490;-70
2023/04/20 07:19:55;;;;;;;10.57;8.27;;;9.90;99.90;;;;;;4995357;28;20969;-69
2023/04/20 07:22:21;;;;;;;10.90;8.43;;;10.00;99.90;;;;;;4985008;28;20687;-69
2023/04/20 07:24:46;;;;;;;9.70;8.80;;;9.90;99.90;;;;;;5000585;28;20427;-72
2023/04/20 07:27:12;;;;;;;10.07;9.00;;;9.90;99.90;;;;;;4999626;28;20549;-72
2023/04/20 07:29:37;;;;;;;10.03;9.13;;;9.70;99.90;;;;;;4988707;28;20180;-72
2023/04/20 07:32:03;;;;;;;9.67;8.53;;;9.80;99.90;;;;;;4991994;28;20183;-69
2023/04/20 07:34:28;;;;;;;10.10;8.93;;;9.70;99.90;;;;;;4991447;28;20215;-70
2023/04/20 07:36:54;;;;;;;15.30;10.00;;;9.70;99.90;;;;;;4985564;28;20271;-70
2023/04/20 07:39:20;;;;;;;10.07;9.07;;;9.70;99.90;;;;;;4998791;28;20234;-70
2023/04/20 07:41:45;;;;;;;9.40;8.60;;;9.80;99.90;;;;;;4990283;28;20235;-70
2023/04/20 07:44:12;;;;;;;9.40;8.50;;;9.90;99.90;;;;;;4990380;28;20184;-70
2023/04/20 07:46:38;;;;;;;10.07;8.40;;;10.20;99.90;;;;;;4990267;28;20219;-70
2023/04/20 07:49:04;;;;;;;9.77;8.87;;;10.50;99.90;;;;;;4990570;28;20463;-70
2023/04/20 07:51:31;;;;;;;14.97;10.00;;;10.80;99.90;;;;;;4990634;28;20443;-69
2023/04/20 07:53:56;;;;;;;10.93;9.80;;;11.10;99.90;;;;;;4990019;28;20648;-70
2023/04/20 07:56:22;;;;;;;10.87;9.80;;;11.10;99.90;;;;;;4994825;28;20460;-70
2023/04/20 07:58:47;;;;;;;8.90;8.10;;;11.10;99.90;;;;;;4978372;28;20710;-71
2023/04/20 08:01:13;;;;;;;10.70;8.93;;;11.00;99.90;;;;;;4999126;28;20171;-70
2023/04/20 08:03:38;;;;;;;10.43;8.57;;;10.80;99.90;;;;;;4994139;28;20710;-70
2023/04/20 08:06:04;;;;;;;11.53;10.07;;;10.90;99.90;;;;;;4988379;28;20240;-70
2023/04/20 08:08:30;;;;;;;10.60;9.70;;;10.90;99.90;;;;;;4991383;28;20184;-70
2023/04/20 08:10:57;;;;;;;11.83;10.73;;;10.60;99.90;;;;;;4989434;28;20310;-70
2023/04/20 08:13:23;;;;;;;10.70;9.60;;;10.40;99.90;;;;;;4989367;28;20611;-70
2023/04/20 08:15:48;;;;;;;31.83;12.37;;;10.30;99.90;;;;;;4990376;28;20465;-67
2023/04/20 08:18:14;;;;;;;10.43;9.37;;;10.10;99.90;;;;;;4987884;28;20210;-67
2023/04/20 08:20:39;;;;;;;10.20;9.20;;;9.70;99.90;;;;;;4989289;28;20190;-67
2023/04/20 08:23:05;;;;;;;11.60;10.40;;;9.40;99.90;;;;;;4992165;28;20241;-67
2023/04/20 08:25:31;;;;;;;38.70;12.27;;;9.30;99.90;;;;;;4991572;28;20187;-67
2023/04/20 08:27:57;;;;;;;9.83;8.57;;;9.20;99.90;;;;;;4991663;28;20299;-68
2023/04/20 08:30:22;;;;;;;12.50;9.60;;;9.10;99.90;;;;;;4984681;28;20668;-68
2023/04/20 08:32:48;;;;;;;13.53;10.00;;;9.00;99.90;;;;;;4993734;28;20231;-68
2023/04/20 08:35:13;;;;;;;10.37;9.40;;;8.80;99.90;;;;;;4995833;28;20183;-67
2023/04/20 08:37:40;;;;;;;10.53;9.57;;;8.80;99.90;;;;;;4995487;28;20580;-68
2023/04/20 08:40:07;;;;;;;16.53;11.60;;;8.70;99.90;;;;;;5002874;28;20183;-67
2023/04/20 08:42:32;;;;;;;10.80;9.80;;;8.70;99.90;;;;;;5002828;28;20438;-67
2023/04/20 08:44:58;;;;;;;12.37;9.80;;;8.30;99.90;;;;;;5004905;28;20814;-68
2023/04/20 08:47:26;;;;;;;11.40;10.20;;;8.10;99.90;;;;;;4995748;28;20230;-67
2023/04/20 08:49:53;;;;;;;11.53;10.43;;;8.00;99.90;;;;;;4997853;28;20442;-67
2023/04/20 08:52:19;;;;;;;12.83;9.40;;;8.00;99.90;;;;;;5004045;28;20443;-67
2023/04/20 08:54:44;;;;;;;13.53;10.63;;;8.00;99.90;;;;;;5007734;28;20520;-68
2023/04/20 08:57:10;;;;;;;11.80;10.30;;;7.80;99.90;;;;;;5001933;28;20207;-67
2023/04/20 08:59:37;;;;;;;11.00;9.90;;;7.80;99.90;;;;;;4993983;28;20642;-67
2023/04/20 09:02:10;;;;;;;12.47;11.33;;;7.80;99.90;;;;;;4999794;28;20202;-67
2023/04/20 09:04:36;;;;;;;10.77;9.70;;;7.70;99.90;;;;;;5003656;28;20429;-67
2023/04/20 09:07:01;;;;;;;11.40;10.20;;;7.70;99.90;;;;;;5002050;28;21045;-67
2023/04/20 09:09:27;;;;;;;12.03;10.07;;;7.50;99.90;;;;;;5001357;28;20266;-68
2023/04/20 09:12:07;;;;;;;11.37;10.20;;;7.50;99.90;;;;;;4996898;28;20184;-67
2023/04/20 09:14:43;;;;;;;12.83;11.57;;;7.40;99.90;;;;;;5002291;28;20182;-67
2023/04/20 09:17:13;;;;;;;11.43;10.43;;;7.30;99.90;;;;;;4989985;28;20516;-67
2023/04/20 09:19:39;;;;;;;13.43;10.67;;;7.30;99.90;;;;;;4990601;28;20430;-68
2023/04/20 09:22:05;;;;;;;12.83;11.60;;;7.30;99.90;;;;;;4999719;28;20517;-66
2023/04/20 09:24:36;;;;;;;12.80;11.60;;;7.30;99.90;;;;;;4992206;28;20965;-67
2023/04/20 09:27:14;;;;;;;10.73;9.63;;;7.40;99.90;;;;;;4991347;28;20454;-67
2023/04/20 09:29:39;;;;;;;10.03;9.07;;;7.40;99.90;;;;;;4994686;28;20985;-67
2023/04/20 09:32:05;;;;;;;12.23;11.07;;;7.50;99.90;;;;;;4989608;28;20434;-67
2023/04/20 09:34:42;;;;;;;11.33;10.27;;;7.60;99.90;;;;;;4998485;28;20656;-66
2023/04/20 09:37:08;;;;;;;11.03;9.90;;;7.50;99.90;;;;;;4991818;28;20649;-67
2023/04/20 09:39:36;;;;;;;11.70;10.60;;;7.40;99.90;;;;;;4994881;28;20526;-67
2023/04/20 09:42:04;;;;;;;11.67;10.47;;;7.30;99.90;;;;;;5001023;28;20171;-66
2023/04/20 09:44:31;;;;;;;12.70;10.50;;;7.30;99.90;;;;;;4996315;28;20475;-67
2023/04/20 09:46:58;;;;;;;11.80;10.57;;;7.30;99.90;;;;;;4989289;28;20478;-71
2023/04/20 09:49:24;;;;;;;10.97;9.87;;;7.40;99.90;;;;;;4992799;28;20532;-72
2023/04/20 09:51:50;;;;;;;11.60;10.50;;;7.50;99.90;;;;;;4996812;28;20441;-71
2023/04/20 09:54:15;;;;;;;13.97;11.10;;;7.50;99.90;;;;;;4999725;28;20525;-72
2023/04/20 09:56:41;;;;;;;13.60;12.40;;;7.50;99.90;;;;;;4992405;28;20199;-71
2023/04/20 09:59:07;;;;;;;12.60;11.30;;;7.70;99.90;;;;;;4991308;28;20661;-71
2023/04/20 10:01:35;;;;;;;12.17;10.97;;;7.70;99.90;;;;;;4992226;28;20525;-71
2023/04/20 10:04:02;;;;;;;14.10;11.60;;;7.80;99.90;;;;;;5000046;28;20217;-72
2023/04/20 10:06:33;;;;;;;15.23;12.33;;;7.80;99.90;;;;;;4989721;28;20530;-72
2023/04/20 10:09:01;;;;;;;15.77;12.23;;;7.80;99.90;;;;;;4992400;28;20566;-71
2023/04/20 10:11:32;;;;;;;14.73;11.40;;;7.70;99.90;;;;;;4996449;28;20454;-72
2023/04/20 10:13:59;;;;;;;12.93;10.60;;;7.70;99.90;;;;;;4997299;28;20437;-71
2023/04/20 10:16:25;;;;;;;15.33;11.60;;;7.60;99.90;;;;;;4992161;28;20561;-69
2023/04/20 10:19:01;;;;;;;12.17;10.83;;;7.70;99.90;;;;;;4993425;28;20544;-71
2023/04/20 10:21:33;;;;;;;11.87;9.80;;;7.70;99.90;;;;;;4988107;28;20438;-72
2023/04/20 10:24:02;;;;;;;11.63;10.53;;;7.70;99.90;;;;;;4994266;28;20521;-72
2023/04/20 10:26:40;;;;;;;11.57;10.40;;;7.70;99.90;;;;;;4993203;28;20457;-71
2023/04/20 10:29:06;;;;;;;13.13;11.80;;;7.70;99.90;;;;;;4992839;28;20522;-72
2023/04/20 10:31:40;;;;;;;11.93;10.70;;;7.80;99.90;;;;;;4996827;28;20471;-70
2023/04/20 10:34:06;;;;;;;14.80;11.47;;;7.70;99.90;;;;;;4991348;28;20439;-68
2023/04/20 10:36:37;;;;;;;10.27;9.30;;;7.80;99.90;;;;;;4994096;28;20584;-72
2023/04/20 10:39:17;;;;;;;12.90;11.57;;;7.80;99.90;;;;;;4981445;28;20556;-71
2023/04/20 10:41:50;;;;;;;15.00;11.27;;;7.90;99.90;;;;;;4987805;28;20438;-72
2023/04/20 10:44:16;;;;;;;14.30;11.10;;;8.00;99.90;;;;;;4983983;28;20438;-71
2023/04/20 10:46:41;;;;;;;11.57;10.47;;;7.90;99.90;;;;;;4991492;28;20470;-70
2023/04/20 10:49:07;;;;;;;22.07;10.90;;;7.90;99.90;;;;;;4991824;28;20895;-72
2023/04/20 10:51:33;;;;;;;12.50;11.27;;;8.00;99.90;;;;;;4991613;28;20522;-72
2023/04/20 10:54:04;;;;;;;15.20;11.50;;;8.00;99.90;;;;;;4987641;28;20440;-71
2023/04/20 10:56:44;;;;;;;12.30;10.50;;;8.10;99.90;;;;;;4990261;28;20290;-72
2023/04/20 10:59:15;;;;;;;12.47;11.10;;;8.20;99.90;;;;;;4987691;28;20470;-71
2023/04/20 11:01:41;;;;;;;15.50;10.70;;;8.20;99.90;;;;;;4994091;28;20446;-71
2023/04/20 11:04:09;;;;;;;12.50;11.30;;;8.00;99.90;;;;;;4989051;28;20441;-72
2023/04/20 11:06:36;;;;;;;13.47;12.13;;;8.00;99.90;;;;;;4993272;28;20608;-71
2023/04/20 11:09:02;;;;;;;12.43;10.17;;;7.90;99.90;;;;;;4992470;28;20798;-71
2023/04/20 11:11:28;;;;;;;13.13;11.83;;;7.80;99.90;;;;;;4991941;28;20525;-68
2023/04/20 11:14:10;;;;;;;10.60;9.57;;;7.90;99.90;;;;;;4990295;28;20187;-70
2023/04/20 11:16:36;;;;;;;12.10;10.87;;;8.20;99.90;;;;;;4992522;28;20277;-70
2023/04/20 11:19:03;;;;;;;12.83;9.80;;;8.40;99.90;;;;;;4994672;28;21170;-67
2023/04/20 11:21:47;;;;;;;13.73;8.60;;;8.50;99.90;;;;;;4986404;28;20442;-69
2023/04/20 11:24:20;;;;;;;9.20;8.40;;;8.70;99.90;;;;;;4986746;28;20443;-67
2023/04/20 11:26:49;;;;;;;9.80;8.87;;;8.50;99.90;;;;;;4994606;28;20438;-69
2023/04/20 11:29:36;;;;;;;9.57;8.57;;;8.40;99.90;;;;;;4991127;28;20454;-67
2023/04/20 11:32:05;;;;;;;22.77;11.40;;;8.40;99.90;;;;;;4988521;28;20434;-69
2023/04/20 11:34:31;;;;;;;9.97;8.70;;;8.30;99.90;;;;;;4989940;28;20466;-69
2023/04/20 11:37:02;;;;;;;10.67;9.57;;;8.20;99.90;;;;;;4989357;28;20458;-68
2023/04/20 11:39:31;;;;;;;10.77;9.70;;;8.10;99.90;;;;;;4985703;28;20443;-71
2023/04/20 11:41:57;;;;;;;10.27;9.30;;;8.10;99.90;;;;;;4986222;28;20462;-70
2023/04/20 11:44:23;;;;;;;9.70;8.70;;;8.20;99.90;;;;;;4986605;28;20442;-69
2023/04/20 11:46:53;;;;;;;9.87;8.87;;;8.30;99.90;;;;;;4989487;28;20477;-69
2023/04/20 11:49:22;;;;;;;10.77;9.77;;;8.40;99.90;;;;;;4992490;28;20573;-68
2023/04/20 11:51:48;;;;;;;11.87;9.47;;;8.50;99.90;;;;;;4990362;28;20454;-67
2023/04/20 11:54:14;;;;;;;12.63;11.33;;;8.50;99.90;;;;;;4988880;28;20900;-68
2023/04/20 11:56:43;;;;;;;10.23;9.23;;;8.40;99.90;;;;;;4994849;28;20893;-68
2023/04/20 11:59:09;;;;;;;10.50;9.47;;;8.40;99.90;;;;;;4992618;28;20203;-66
2023/04/20 12:01:35;;;;;;;10.73;9.63;;;8.50;99.90;;;;;;4983429;28;20461;-68
2023/04/20 12:04:01;;;;;;;19.00;15.67;;;8.50;99.90;;;;;;4987797;28;20176;-69
2023/04/20 12:06:33;;;;;;;12.70;11.23;;;8.50;99.90;;;;;;4994959;28;20214;-67
2023/04/20 12:08:59;;;;;;;12.37;9.97;;;8.40;99.90;;;;;;4988458;28;20449;-67
2023/04/20 12:11:25;;;;;;;11.60;10.50;;;8.40;99.90;;;;;;4976335;28;20442;-69
2023/04/20 12:13:52;;;;;;;10.53;9.47;;;8.40;99.90;;;;;;4994595;28;20493;-68
2023/04/20 12:16:17;;;;;;;10.93;9.93;;;8.30;99.90;;;;;;4993622;28;20187;-68
2023/04/20 12:18:43;;;;;;;15.20;11.27;;;8.30;99.90;;;;;;4993030;28;21284;-68
2023/04/20 12:21:09;;;;;;;20.90;15.30;;;8.40;99.90;;;;;;5001472;28;20180;-68
2023/04/20 12:23:37;;;;;;;13.07;11.73;;;8.40;99.90;;;;;;4991049;28;20191;-68
2023/04/20 12:26:03;;;;;;;14.20;11.73;;;8.40;99.90;;;;;;4991203;28;20180;-69
2023/04/20 12:28:30;;;;;;;15.13;12.20;;;8.50;99.90;;;;;;4999685;28;20441;-68
2023/04/20 12:30:55;;;;;;;13.20;11.80;;;8.70;99.90;;;;;;4992098;28;20970;-68
2023/04/20 12:33:21;;;;;;;13.20;11.80;;;8.70;99.90;;;;;;4996422;28;20434;-67
2023/04/20 12:35:47;;;;;;;13.60;12.20;;;8.80;99.90;;;;;;4994561;28;20194;-68
2023/04/20 12:38:12;;;;;;;13.80;12.20;;;8.90;99.90;;;;;;4991089;28;20215;-68
2023/04/20 12:40:38;;;;;;;12.07;10.90;;;9.00;99.90;;;;;;4995972;28;20179;-68
2023/04/20 12:43:03;;;;;;;19.67;12.40;;;9.10;99.90;;;;;;4997207;28;20622;-68
2023/04/20 12:45:29;;;;;;;11.70;10.50;;;9.20;99.90;;;;;;4994142;28;20196;-68